Beale Air Force Base
KBAB : now visible

Airfield :











YOU CAN JOIN US ON...

 
LOGIN :

Register | Disclaimer

   EN    FR    IT 

 









Legend :    VFR   Marginal VFR   IFR   Intensive IFR   Very Intensive IFR
Visi :
Ceiling :
>= 8 km
>= 3000ft
5 to 8 km
1000 to 3000 ft
1500m to 5 km
500 to 1000 ft
800 to 1500m
200 to 500 ft
< 800m
< 200 ft
Symbols :   Thunderstorms  Fog  Heavy snow  Heavy precipitations  Wind > 20 kt






- Airport Elevation : 113 ft


KBAB - Beale Air Force Base

CURRENT METAR :
  • 031358Z AUTO 00000KT 10SM CLR 18/11 A2995 RMK AO2 SLP144

EXPIRED METARs :
  • 031258Z AUTO 07005KT 10SM CLR 19/11 A2995 RMK AO2 SLP144 T01880114 $

TAF TAF KBAB
Valid from the 03 at 11:00 until the 04 at 17:00 UTC


031100Z 0311/0417 VRB06KT 9999 SKC QNH2993INS
BECMG 0318/0319 24009KT 9999 SKC QNH2981INS
BECMG 0404/0405 15006KT 9999 SKC QNH2983INS TX40/0400Z TN17/0313Z
KZOA FIR / North America



MET'MAP, your aeronautical weather chart ! - Copyright ORBIFLY December 2007 - Disclaimer

ORBIFLY MET'MAP TEAM :

Programming & Development : Alexandra Zaïnal
Concept & original design : Baudouin d'Aumeries
Assistance for programming : Marc-Olivier Méhu
Technical & hardware support : Manuel Goepfert

Contact : metmap@orbifly.com




SOURCES & CREDITS :

   NOAA       Earth
Advisory